Time;durP1;ratioP1;P1;durP2;ratioP2;P2;SDS_P1;SDS_P2;PMS_P1;PMS_P2;Temp;Humidity;BMP_temperature;BMP_pressure;BME280_temperature;BME280_humidity;BME280_pressure;Samples;Min_cycle;Max_cycle;Signal;HPM_P1;HPM_P2
2024/04/12 00:02:04;;;;;;;11.70;4.60;;;;;;;16.33;57.93;101525.97;108827;1253;94939;-72
2024/04/12 00:04:58;;;;;;;10.20;4.10;;;;;;;16.29;57.98;101522.14;108824;1250;94945;-73
2024/04/12 00:07:40;;;;;;;9.20;4.20;;;;;;;16.28;57.86;101521.23;108985;1250;114685;-72
2024/04/12 00:10:13;;;;;;;13.60;4.70;;;;;;;16.26;57.94;101526.12;108881;1250;94952;-72
2024/04/12 00:13:05;;;;;;;11.70;4.80;;;;;;;16.24;57.90;101523.95;108909;1250;106426;-72
2024/04/12 00:15:56;;;;;;;11.30;4.30;;;;;;;16.18;57.81;101527.50;108947;1250;95058;-72
2024/04/12 00:18:47;;;;;;;10.60;4.30;;;;;;;16.13;57.91;101528.05;109000;1250;95327;-73
2024/04/12 00:21:41;;;;;;;11.80;4.00;;;;;;;16.07;57.84;101527.52;108959;1249;111275;-72
2024/04/12 00:24:36;;;;;;;6.40;3.90;;;;;;;16.02;57.85;101531.41;108963;1250;95542;-72
2024/04/12 00:27:21;;;;;;;11.60;4.40;;;;;;;15.99;58.09;101530.98;108926;1249;108195;-72
2024/04/12 00:30:07;;;;;;;8.80;4.30;;;;;;;15.98;58.00;101536.43;108932;1250;94965;-72
2024/04/12 00:33:00;;;;;;;9.10;4.60;;;;;;;15.94;57.98;101537.20;108991;1250;94851;-72
2024/04/12 00:35:54;;;;;;;12.10;5.10;;;;;;;15.92;57.98;101538.19;108945;1249;109958;-72
2024/04/12 00:38:24;;;;;;;12.80;4.50;;;;;;;15.88;58.02;101537.00;108851;1253;99355;-72
2024/04/12 00:41:18;;;;;;;8.60;4.30;;;;;;;15.89;58.15;101540.58;108954;1249;106343;-72
2024/04/12 00:44:08;;;;;;;9.30;4.10;;;;;;;15.90;58.16;101542.34;108834;1250;94966;-72
2024/04/12 00:46:42;;;;;;;15.00;4.80;;;;;;;15.91;58.20;101542.57;108909;1250;94930;-72
2024/04/12 00:49:36;;;;;;;11.20;4.50;;;;;;;15.91;58.20;101539.20;109020;1250;110083;-72
2024/04/12 00:52:16;;;;;;;;;;;;;;;15.91;58.18;101544.16;109031;1250;95901;-71
2024/04/12 00:55:09;;;;;;;12.90;4.50;;;;;;;15.89;58.15;101541.26;108967;1249;106442;-71
2024/04/12 00:58:00;;;;;;;8.40;4.40;;;;;;;15.82;58.07;101535.41;108885;1250;94890;-72
2024/04/12 01:00:51;;;;;;;9.80;4.10;;;;;;;15.75;58.11;101536.60;108924;1250;94906;-72
2024/04/12 01:03:29;;;;;;;8.10;4.20;;;;;;;15.74;58.14;101536.91;108910;1250;109983;-72
2024/04/12 01:06:24;;;;;;;10.90;4.40;;;;;;;15.70;57.99;101541.54;108923;1250;94958;-71
2024/04/12 01:09:11;;;;;;;9.50;4.10;;;;;;;15.63;58.01;101546.63;108944;1249;112328;-71
2024/04/12 01:11:56;;;;;;;9.60;4.10;;;;;;;15.59;58.22;101543.12;108957;1249;95036;-72
2024/04/12 01:14:33;;;;;;;8.10;3.80;;;;;;;15.55;58.14;101547.23;108811;1251;95886;-71
2024/04/12 01:17:10;;;;;;;11.70;4.00;;;;;;;15.52;58.16;101546.42;108938;1250;110006;-71
2024/04/12 01:19:46;;;;;;;8.70;4.00;;;;;;;15.51;58.31;101540.05;108821;1250;94952;-71
2024/04/12 01:22:30;;;;;;;8.80;3.80;;;;;;;15.50;58.33;101542.30;108925;1250;106472;-71
2024/04/12 01:25:15;;;;;;;10.10;4.90;;;;;;;15.48;58.17;101541.55;108955;1249;95603;-72
2024/04/12 01:27:49;;;;;;;9.50;4.20;;;;;;;15.44;58.13;101542.67;108936;1250;94975;-71
2024/04/12 01:30:40;;;;;;;9.10;4.20;;;;;;;15.37;58.06;101541.73;108951;1250;110106;-71
2024/04/12 01:33:31;;;;;;;11.10;3.80;;;;;;;15.32;58.14;101541.20;109012;1249;94945;-71
2024/04/12 01:36:17;;;;;;;;;;;;;;;15.27;58.27;101543.51;108968;1253;106371;-72
2024/04/12 01:38:59;;;;;;;11.40;4.20;;;;;;;15.20;58.22;101546.43;108894;1250;94940;-72
2024/04/12 01:41:51;;;;;;;11.70;4.60;;;;;;;15.11;58.41;101549.51;108912;1249;95049;-71
2024/04/12 01:44:37;;;;;;;11.60;4.30;;;;;;;15.03;58.44;101553.45;108940;1250;111356;-71
2024/04/12 01:47:27;;;;;;;11.10;4.10;;;;;;;14.96;58.57;101553.91;108972;1250;94925;-72
2024/04/12 01:50:22;;;;;;;10.40;4.50;;;;;;;14.91;58.59;101552.02;108901;1250;112363;-71
2024/04/12 01:53:15;;;;;;;14.60;4.20;;;;;;;14.87;58.55;101548.52;108923;1250;94940;-71
2024/04/12 01:56:06;;;;;;;10.00;4.20;;;;;;;14.86;58.60;101545.64;109009;1250;95176;-72
2024/04/12 01:58:54;;;;;;;11.40;4.00;;;;;;;14.83;58.47;101544.66;108950;1250;110027;-72
2024/04/12 02:01:46;;;;;;;12.60;4.20;;;;;;;14.81;58.54;101546.02;108950;1250;95381;-72
2024/04/12 02:04:37;;;;;;;9.80;4.20;;;;;;;14.80;58.49;101546.67;108849;1250;106499;-71
2024/04/12 02:07:28;;;;;;;9.30;4.00;;;;;;;14.81;58.72;101545.83;108931;1249;95026;-71
2024/04/12 02:10:22;;;;;;;11.70;3.90;;;;;;;14.80;58.71;101546.85;108864;1250;94932;-71
2024/04/12 02:13:17;;;;;;;10.20;4.00;;;;;;;14.77;58.61;101551.33;108840;1250;110094;-72
2024/04/12 02:16:11;;;;;;;10.60;3.80;;;;;;;14.72;58.71;101549.77;108880;1250;94961;-71
2024/04/12 02:19:02;;;;;;;9.40;3.90;;;;;;;14.69;58.72;101547.35;108873;1250;106424;-72
2024/04/12 02:21:38;;;;;;;6.80;3.80;;;;;;;14.64;58.69;101550.88;108876;1250;95991;-71
2024/04/12 02:24:29;;;;;;;9.70;3.90;;;;;;;14.60;58.76;101550.72;108951;1250;95379;-72
2024/04/12 02:27:22;;;;;;;10.20;3.90;;;;;;;14.56;58.66;101555.48;108859;1250;109990;-71
2024/04/12 02:29:55;;;;;;;12.60;4.10;;;;;;;14.49;58.75;101555.94;108868;1250;95256;-72
2024/04/12 02:32:47;;;;;;;9.30;3.90;;;;;;;14.43;58.78;101558.90;108838;1250;106362;-73
2024/04/12 02:35:41;;;;;;;7.40;3.60;;;;;;;14.38;58.73;101557.63;108855;1250;94875;-71
2024/04/12 02:38:32;;;;;;;9.70;3.70;;;;;;;14.34;58.91;101559.07;108855;1250;94953;-71
2024/04/12 02:41:23;;;;;;;9.30;3.70;;;;;;;14.31;58.88;101562.67;108867;1250;116007;-72
2024/04/12 02:44:14;;;;;;;9.30;4.20;;;;;;;14.29;59.18;101563.98;108902;1249;94911;-72
2024/04/12 02:46:58;;;;;;;13.10;4.40;;;;;;;14.25;59.15;101565.10;108876;1250;107690;-72
2024/04/12 02:49:52;;;;;;;8.40;3.70;;;;;;;14.22;59.34;101571.48;108904;1249;95093;-71
2024/04/12 02:52:43;;;;;;;9.90;4.20;;;;;;;14.22;59.41;101572.70;108913;1250;95585;-72
2024/04/12 02:55:18;;;;;;;13.60;4.40;;;;;;;14.23;59.52;101575.03;108893;1250;109788;-71
2024/04/12 02:57:52;;;;;;;11.50;4.20;;;;;;;14.23;59.43;101574.85;108950;1250;95500;-71
2024/04/12 03:00:44;;;;;;;10.00;4.00;;;;;;;14.18;59.60;101577.35;108833;1251;106310;-72
2024/04/12 03:03:36;;;;;;;11.90;4.00;;;;;;;14.16;59.60;101578.48;108895;1251;94945;-71
2024/04/12 03:06:28;;;;;;;8.40;3.70;;;;;;;14.12;59.52;101578.84;108907;1250;94874;-71
2024/04/12 03:09:18;;;;;;;9.10;3.50;;;;;;;14.08;59.57;101582.38;108957;1249;110732;-71
2024/04/12 03:12:12;;;;;;;9.90;4.10;;;;;;;14.06;59.47;101582.48;108868;1250;100271;-71
2024/04/12 03:15:04;;;;;;;12.40;4.20;;;;;;;14.00;59.40;101580.70;108916;1250;106376;-71
2024/04/12 03:17:47;;;;;;;11.70;4.40;;;;;;;13.97;59.51;101580.55;108928;1250;95550;-71
2024/04/12 03:20:41;;;;;;;12.90;4.10;;;;;;;13.95;59.59;101587.70;108998;1250;97434;-72
2024/04/12 03:23:32;;;;;;;8.80;4.40;;;;;;;13.89;59.57;101584.27;109070;1249;111380;-71
2024/04/12 03:26:13;;;;;;;12.90;4.40;;;;;;;13.85;59.64;101587.82;109085;1249;96265;-71
2024/04/12 03:29:05;;;;;;;8.00;4.00;;;;;;;13.79;59.56;101593.01;108968;1250;106373;-71
2024/04/12 03:31:48;;;;;;;;;;;;;;;13.74;59.63;101594.95;108936;1252;96459;-71
2024/04/12 03:34:39;;;;;;;10.10;4.40;;;;;;;13.72;59.74;101598.54;108949;1250;96977;-71
2024/04/12 03:37:38;;;;;;;9.20;3.90;;;;;;;13.68;59.79;101603.15;108894;1250;111284;-72
2024/04/12 03:40:24;;;;;;;9.60;4.40;;;;;;;13.65;59.84;101602.69;108886;1251;97531;-73
2024/04/12 03:43:07;;;;;;;11.60;3.70;;;;;;;13.65;59.97;101604.63;108878;1250;110547;-72
2024/04/12 03:45:42;;;;;;;9.60;3.50;;;;;;;13.65;59.97;101602.14;108876;1250;96369;-72
2024/04/12 03:48:33;;;;;;;13.50;4.00;;;;;;;13.63;59.97;101606.30;108907;1250;97337;-72
2024/04/12 03:51:24;;;;;;;10.10;4.10;;;;;;;13.63;59.92;101605.76;108835;1252;112753;-72
2024/04/12 03:54:17;;;;;;;8.20;3.80;;;;;;;13.63;60.07;101608.91;109082;1250;96846;-71
2024/04/12 03:56:52;;;;;;;11.60;4.30;;;;;;;13.61;60.13;101607.61;109011;1250;106413;-72
2024/04/12 03:59:38;;;;;;;11.40;3.90;;;;;;;13.60;60.12;101606.35;108967;1249;97183;-72
2024/04/12 04:02:15;;;;;;;14.80;4.90;;;;;;;13.59;60.26;101607.02;108958;1249;96335;-71
2024/04/12 04:05:14;;;;;;;9.90;4.40;;;;;;;13.60;60.30;101610.41;108845;1250;111346;-74
2024/04/12 04:08:07;;;;;;;11.00;4.10;;;;;;;13.61;60.35;101610.80;108963;1250;97639;-72
2024/04/12 04:10:49;;;;;;;10.40;4.00;;;;;;;13.63;60.38;101612.44;108867;1250;106435;-74
2024/04/12 04:13:33;;;;;;;11.50;4.50;;;;;;;13.62;60.45;101613.84;108864;1251;96335;-71
2024/04/12 04:16:08;;;;;;;9.40;3.90;;;;;;;13.63;60.50;101614.37;108767;1250;97342;-71
2024/04/12 04:18:41;;;;;;;12.60;4.40;;;;;;;13.63;60.52;101613.70;108780;1251;111789;-72
2024/04/12 04:21:15;;;;;;;9.70;4.70;;;;;;;13.69;60.74;101618.65;108770;1250;96769;-71
2024/04/12 04:24:09;;;;;;;12.00;4.50;;;;;;;13.67;60.66;101617.70;108667;1251;112475;-72
2024/04/12 04:26:53;;;;;;;11.10;4.70;;;;;;;13.67;60.65;101621.75;108697;1250;96733;-73
2024/04/12 04:29:35;;;;;;;11.70;4.50;;;;;;;13.68;60.85;101624.61;108734;1249;97166;-72
2024/04/12 04:32:09;;;;;;;11.80;4.60;;;;;;;13.69;60.85;101628.52;108604;1250;111354;-72
2024/04/12 04:35:05;;;;;;;14.10;4.60;;;;;;;13.69;60.85;101624.48;108712;1250;96767;-72
2024/04/12 04:37:40;;;;;;;8.30;3.90;;;;;;;13.73;60.89;101627.42;108697;1250;107529;-72
2024/04/12 04:40:17;;;;;;;12.90;4.30;;;;;;;13.78;60.85;101632.91;108712;1253;96348;-73
2024/04/12 04:42:49;;;;;;;11.60;4.00;;;;;;;13.79;60.78;101628.73;108769;1250;96859;-73
2024/04/12 04:45:31;;;;;;;10.50;4.00;;;;;;;13.84;60.76;101629.11;108698;1250;111378;-73
2024/04/12 04:48:05;;;;;;;11.60;4.30;;;;;;;13.87;60.64;101629.06;108631;1253;97470;-73
2024/04/12 04:50:41;;;;;;;10.90;4.30;;;;;;;13.94;60.56;101633.20;108660;1251;107366;-72
2024/04/12 04:53:17;;;;;;;15.10;4.20;;;;;;;13.97;60.44;101634.06;108703;1250;97740;-73
2024/04/12 04:56:07;;;;;;;15.70;4.40;;;;;;;14.04;60.50;101635.54;108719;1250;96939;-73
2024/04/12 04:58:58;;;;;;;14.90;4.80;;;;;;;14.06;60.30;101641.09;108808;1250;111072;-73
2024/04/12 05:01:50;;;;;;;14.90;4.80;;;;;;;14.09;60.34;101638.90;108755;1255;96482;-73
2024/04/12 05:04:42;;;;;;;10.80;4.70;;;;;;;14.08;60.25;101638.52;108756;1250;105358;-74
2024/04/12 05:07:34;;;;;;;12.30;4.70;;;;;;;14.11;60.19;101636.00;108768;1253;97488;-72
2024/04/12 05:10:16;;;;;;;14.80;4.50;;;;;;;14.21;60.19;101635.33;108776;1251;97431;-73
2024/04/12 05:13:11;;;;;;;14.00;4.10;;;;;;;14.32;60.11;101638.20;108586;1250;111366;-72
2024/04/12 05:16:09;;;;;;;10.20;4.20;;;;;;;14.38;59.85;101638.42;108579;1250;97534;-73
2024/04/12 05:18:44;;;;;;;10.80;3.90;;;;;;;14.48;59.74;101639.87;108569;1250;106444;-73
2024/04/12 05:21:29;;;;;;;13.10;4.40;;;;;;;14.58;59.69;101635.84;108567;1249;97337;-71
2024/04/12 05:24:24;;;;;;;15.50;4.30;;;;;;;14.69;59.62;101638.06;108680;1251;97321;-73
2024/04/12 05:27:15;;;;;;;10.60;4.00;;;;;;;14.78;59.36;101634.83;108728;1249;111348;-72
2024/04/12 05:30:13;;;;;;;13.60;3.90;;;;;;;14.86;59.28;101637.41;108794;1253;96762;-72
2024/04/12 05:33:04;;;;;;;11.80;3.80;;;;;;;14.93;59.02;101637.17;108804;1251;107740;-71
2024/04/12 05:35:48;;;;;;;7.70;3.20;;;;;;;15.06;58.89;101644.51;108573;1255;96694;-74
2024/04/12 05:38:39;;;;;;;12.50;3.80;;;;;;;15.15;58.59;101644.11;108665;1250;97509;-72
2024/04/12 05:41:32;;;;;;;8.00;3.80;;;;;;;15.21;58.48;101643.98;108528;1250;111273;-71
2024/04/12 05:44:23;;;;;;;9.10;3.90;;;;;;;15.30;58.24;101643.04;108383;1252;96570;-73
2024/04/12 05:47:11;;;;;;;11.80;4.30;;;;;;;15.40;58.15;101645.49;108440;1250;108297;-73
2024/04/12 05:50:02;;;;;;;18.10;4.80;;;;;;;15.53;58.18;101647.86;108720;1251;97220;-72
2024/04/12 05:52:34;;;;;;;13.20;5.10;;;;;;;15.63;57.83;101646.61;108583;1251;97371;-71
2024/04/12 05:55:19;;;;;;;16.50;4.20;;;;;;;15.75;57.91;101651.09;108414;1253;112082;-73
2024/04/12 05:58:12;;;;;;;26.40;5.30;;;;;;;15.89;57.73;101650.83;108484;1252;97814;-72
2024/04/12 06:00:56;;;;;;;14.40;4.00;;;;;;;16.03;57.46;101649.69;108480;1252;105345;-72
2024/04/12 06:03:48;;;;;;;10.80;3.70;;;;;;;16.13;57.08;101648.09;108441;1253;97439;-72
2024/04/12 06:06:24;;;;;;;23.70;6.20;;;;;;;16.23;56.96;101646.44;108459;1250;96315;-72
2024/04/12 06:09:20;;;;;;;9.80;3.60;;;;;;;16.37;56.59;101646.14;108445;1251;111912;-73
2024/04/12 06:12:13;;;;;;;9.00;3.40;;;;;;;16.50;56.55;101647.96;108485;1250;97525;-73
2024/04/12 06:15:00;;;;;;;9.80;3.40;;;;;;;16.60;56.05;101649.66;108608;1250;108332;-71
2024/04/12 06:17:35;;;;;;;13.50;3.70;;;;;;;16.71;55.83;101646.29;108581;1251;97376;-74
2024/04/12 06:20:36;;;;;;;12.40;3.80;;;;;;;16.87;55.59;101650.64;104375;1251;5414122;-74
2024/04/12 06:23:29;;;;;;;23.90;4.40;;;;;;;17.03;55.54;101647.91;108563;1250;98024;-71
2024/04/12 06:26:22;;;;;;;10.90;3.70;;;;;;;17.17;55.12;101652.36;108359;1253;106328;-72
2024/04/12 06:28:57;;;;;;;11.10;3.70;;;;;;;17.31;54.44;101651.13;108363;1253;96803;-72
2024/04/12 06:31:38;;;;;;;12.00;3.90;;;;;;;17.44;54.85;101647.75;108405;1253;97008;-73
2024/04/12 06:34:12;;;;;;;11.10;3.60;;;;;;;17.57;54.32;101648.79;108432;1255;112979;-74
2024/04/12 06:37:06;;;;;;;8.20;3.10;;;;;;;17.71;54.03;101645.23;108492;1253;99284;-71
2024/04/12 06:39:40;;;;;;;9.70;3.10;;;;;;;17.84;53.91;101642.20;108460;1250;106450;-72
2024/04/12 06:42:27;;;;;;;8.10;2.80;;;;;;;18.03;52.87;101635.05;108416;1250;97716;-71
2024/04/12 06:45:20;;;;;;;7.30;2.90;;;;;;;18.21;51.75;101634.23;108468;1250;97250;-72
2024/04/12 06:47:56;;;;;;;8.10;2.90;;;;;;;18.35;51.27;101631.52;108592;1251;114268;-73
2024/04/12 06:50:36;;;;;;;8.70;2.60;;;;;;;18.45;50.37;101631.55;108576;1250;96827;-72
2024/04/12 06:53:21;;;;;;;9.70;3.20;;;;;;;18.60;50.11;101630.98;108570;1251;106196;-71
2024/04/12 06:55:58;;;;;;;6.80;2.60;;;;;;;18.75;49.04;101632.88;108539;1250;96953;-71
2024/04/12 06:58:38;;;;;;;10.80;3.20;;;;;;;18.84;48.87;101633.09;108473;1250;96359;-72
2024/04/12 07:01:10;;;;;;;7.70;3.30;;;;;;;18.92;48.40;101630.61;108291;1251;111273;-73
2024/04/12 07:03:45;;;;;;;9.60;3.00;;;;;;;19.08;48.70;101633.89;108034;1254;97099;-72
2024/04/12 07:06:25;;;;;;;8.60;3.20;;;;;;;19.26;46.83;101635.30;108365;1250;106174;-71
2024/04/12 07:09:48;;;;;;;;;;;;;;;;;;;;;
2024/04/12 07:12:27;;;;;;;8.70;2.60;;;;;;;19.50;46.51;101639.44;108296;1251;97234;-72
2024/04/12 07:14:58;;;;;;;9.30;2.90;;;;;;;19.58;46.89;101634.42;108350;1251;111365;-73
2024/04/12 07:17:41;;;;;;;8.50;3.00;;;;;;;19.70;45.47;101637.27;108392;1251;96993;-71
2024/04/12 07:20:27;;;;;;;6.80;2.90;;;;;;;19.87;46.42;101637.23;108397;1256;110156;-72
2024/04/12 07:23:04;;;;;;;8.20;2.60;;;;;;;19.97;44.14;101642.20;108383;1251;97073;-72
2024/04/12 07:25:41;;;;;;;12.70;3.00;;;;;;;20.06;43.80;101640.89;108378;1256;97262;-74
2024/04/12 07:28:32;;;;;;;9.20;3.20;;;;;;;20.18;43.61;101634.14;108369;1251;116567;-73
2024/04/12 07:31:05;;;;;;;;;;;;;;;20.29;44.47;101635.02;108493;1250;97323;-74
2024/04/12 07:33:36;;;;;;;8.70;2.80;;;;;;;20.46;43.71;101636.65;108252;1253;107996;-73
2024/04/12 07:36:19;;;;;;;6.30;3.00;;;;;;;20.55;42.29;101633.91;108418;1253;97822;-73
2024/04/12 07:39:09;;;;;;;10.80;2.70;;;;;;;20.61;42.88;101631.68;108411;1255;96711;-73
2024/04/12 07:41:45;;;;;;;11.90;2.90;;;;;;;20.73;42.58;101635.59;108433;1251;111398;-73
2024/04/12 07:44:26;;;;;;;9.60;3.40;;;;;;;20.75;42.64;101635.27;108482;1250;97257;-72
2024/04/12 07:47:07;;;;;;;8.50;3.20;;;;;;;20.82;42.55;101632.14;108287;1251;106399;-73
2024/04/12 07:49:48;;;;;;;9.80;3.40;;;;;;;20.90;41.86;101632.40;108302;1253;96554;-73
2024/04/12 07:52:30;;;;;;;11.20;2.90;;;;;;;20.96;40.76;101627.50;108363;1253;97366;-73
2024/04/12 07:55:09;;;;;;;11.10;2.80;;;;;;;20.89;39.57;101623.52;108053;1253;111375;-72
2024/04/12 07:58:08;;;;;;;9.00;3.00;;;;;;;20.84;40.50;101625.23;108261;1253;97549;-73
2024/04/12 08:00:46;;;;;;;6.90;3.00;;;;;;;20.97;40.18;101622.70;108298;1253;106192;-74
2024/04/12 08:03:26;;;;;;;9.00;3.20;;;;;;;20.98;39.79;101619.87;108337;1256;97582;-73
2024/04/12 08:06:04;;;;;;;5.90;2.70;;;;;;;20.97;39.60;101619.67;108439;1251;96741;-73
2024/04/12 08:09:04;;;;;;;9.80;3.20;;;;;;;20.98;39.28;101617.03;108317;1250;111756;-73
2024/04/12 08:11:41;;;;;;;8.10;3.40;;;;;;;21.04;39.53;101620.46;108534;1250;96944;-72
2024/04/12 08:14:20;;;;;;;8.30;2.70;;;;;;;21.04;39.06;101622.95;108592;1250;106229;-71
2024/04/12 08:17:14;;;;;;;11.30;3.00;;;;;;;21.04;39.14;101620.46;108434;1251;96690;-73
2024/04/12 08:20:13;;;;;;;10.50;2.90;;;;;;;21.05;39.23;101612.10;108461;1253;96604;-71
2024/04/12 08:22:48;;;;;;;9.90;3.10;;;;;;;21.12;39.54;101610.59;108490;1250;111935;-71
2024/04/12 08:25:33;;;;;;;5.80;3.10;;;;;;;21.22;39.22;101609.60;108462;1250;96942;-72
2024/04/12 08:28:27;;;;;;;6.40;3.00;;;;;;;21.33;38.87;101605.42;108452;1251;106732;-72
2024/04/12 08:31:11;;;;;;;8.30;3.30;;;;;;;21.27;37.91;101602.71;108397;1251;96689;-74
2024/04/12 08:33:47;;;;;;;10.00;3.20;;;;;;;21.12;38.15;101604.52;108545;1251;96447;-73
2024/04/12 08:36:38;;;;;;;8.90;3.20;;;;;;;21.05;38.06;101604.27;108517;1250;114846;-73
2024/04/12 08:39:42;;;;;;;7.00;3.60;;;;;;;20.97;38.52;101602.26;108257;1250;97749;-72
2024/04/12 08:42:15;;;;;;;7.90;3.70;;;;;;;21.06;38.43;101602.88;108181;1254;107965;-72
2024/04/12 08:44:47;;;;;;;8.90;3.50;;;;;;;21.14;38.50;101599.39;108471;1254;97366;-73
2024/04/12 08:47:30;;;;;;;7.40;3.40;;;;;;;21.26;38.68;101594.86;108376;1250;96730;-72
2024/04/12 08:50:31;;;;;;;12.50;3.60;;;;;;;21.39;38.82;101595.52;108443;1251;111449;-74
2024/04/12 08:53:17;;;;;;;11.10;3.30;;;;;;;21.46;38.49;101599.85;108418;1253;97468;-74
2024/04/12 08:55:50;;;;;;;9.50;3.70;;;;;;;21.50;38.31;101596.17;108352;1251;106365;-73
2024/04/12 08:58:24;;;;;;;8.90;3.30;;;;;;;21.51;37.90;101593.70;108230;1251;97536;-74
2024/04/12 09:01:16;;;;;;;9.90;3.50;;;;;;;21.44;38.00;101587.91;108139;1251;97336;-71
2024/04/12 09:04:14;;;;;;;6.90;3.40;;;;;;;21.45;38.24;101583.84;108259;1250;112705;-72
2024/04/12 09:06:50;;;;;;;11.10;3.70;;;;;;;21.55;37.93;101585.36;108190;1256;96666;-73
2024/04/12 09:09:22;;;;;;;8.50;3.80;;;;;;;21.55;37.63;101588.92;108014;1251;107485;-73
2024/04/12 09:11:56;;;;;;;9.10;3.60;;;;;;;21.56;37.86;101576.46;108397;1254;96322;-73
2024/04/12 09:14:35;;;;;;;10.80;3.50;;;;;;;21.53;37.62;101572.73;108301;1249;96558;-74
2024/04/12 09:17:14;;;;;;;8.30;3.40;;;;;;;21.52;37.78;101569.31;108459;1254;111338;-72
2024/04/12 09:19:59;;;;;;;7.40;3.30;;;;;;;21.57;38.10;101571.13;108526;1253;97388;-73
2024/04/12 09:22:41;;;;;;;8.00;3.10;;;;;;;21.64;37.96;101564.59;108344;1255;106277;-73
2024/04/12 09:25:26;;;;;;;12.20;3.70;;;;;;;21.67;37.83;101558.37;108299;1250;97494;-74
2024/04/12 09:28:18;;;;;;;9.00;3.40;;;;;;;21.70;37.80;101556.80;108009;1250;97767;-74
2024/04/12 09:36:56;;;;;;;10.20;3.30;;;;;;;21.88;37.34;101555.30;108197;1256;106456;-73
2024/04/12 09:40:04;;;;;;;9.30;3.40;;;;;;;21.77;37.29;101551.84;108236;1251;97022;-74
2024/04/12 09:45:53;;;;;;;;;;;;;;;21.87;37.67;101538.38;108508;1251;111430;-72
2024/04/12 10:39:49;;;;;;;15.60;4.00;;;;;;;21.83;37.27;101500.24;108455;1251;96579;-74
2024/04/12 10:42:25;;;;;;;8.80;3.80;;;;;;;21.84;37.16;101500.77;108497;1251;97983;-72
2024/04/12 10:45:22;;;;;;;10.50;3.70;;;;;;;21.87;37.42;101493.67;108367;1251;111293;-72
2024/04/12 10:48:14;;;;;;;8.40;4.00;;;;;;;21.93;37.51;101490.67;108392;1253;97162;-74
2024/04/12 10:50:54;;;;;;;9.80;3.60;;;;;;;21.89;37.39;101485.84;108429;1254;106406;-73
2024/04/12 10:53:29;;;;;;;7.50;3.50;;;;;;;21.94;37.60;101482.13;108476;1251;96697;-72
2024/04/12 10:56:18;;;;;;;10.20;3.80;;;;;;;22.02;37.40;101485.55;108620;1251;96391;-73
2024/04/12 10:58:52;;;;;;;11.70;3.80;;;;;;;22.04;37.53;101481.45;108533;1251;111291;-73
2024/04/12 11:01:26;;;;;;;17.50;4.60;;;;;;;22.06;37.72;101470.25;108675;1251;96825;-72
2024/04/12 11:04:02;;;;;;;13.10;3.90;;;;;;;22.09;37.60;101480.05;108599;1251;107704;-73
2024/04/12 11:06:34;;;;;;;10.90;3.80;;;;;;;22.05;37.61;101472.02;108558;1254;97481;-72
2024/04/12 11:09:17;;;;;;;12.40;3.70;;;;;;;22.03;37.41;101471.83;108577;1254;98014;-74
2024/04/12 11:12:22;;;;;;;8.60;3.60;;;;;;;21.94;37.53;101473.39;108473;1251;112330;-74
2024/04/12 11:15:12;;;;;;;12.10;3.80;;;;;;;22.00;37.63;101465.94;108475;1251;99435;-73
2024/04/12 11:32:47;;;;;;;11.20;3.70;;;;;;;21.81;37.37;101458.38;108609;1251;106296;-73
2024/04/12 11:35:34;;;;;;;9.90;3.80;;;;;;;21.84;37.50;101457.33;108403;1256;97135;-73
2024/04/12 11:38:13;;;;;;;11.20;4.00;;;;;;;21.85;37.52;101450.38;108704;1251;96808;-72
2024/04/12 11:40:46;;;;;;;8.90;3.90;;;;;;;21.87;37.55;101446.48;108604;1251;113562;-73
2024/04/12 11:43:20;;;;;;;13.40;4.20;;;;;;;21.87;37.64;101440.41;108574;1251;96670;-73
2024/04/12 11:46:14;;;;;;;12.60;3.90;;;;;;;21.92;37.73;101434.74;108544;1251;111498;-73
2024/04/12 11:48:47;;;;;;;11.60;3.90;;;;;;;21.99;37.51;101428.88;108631;1251;96842;-74
2024/04/12 11:51:21;;;;;;;10.10;3.70;;;;;;;21.99;37.56;101437.96;108584;1251;97532;-73
2024/04/12 11:53:55;;;;;;;8.20;3.50;;;;;;;21.99;37.64;101424.42;108631;1251;112598;-73
2024/04/12 11:56:32;;;;;;;14.30;4.00;;;;;;;22.10;37.77;101426.05;108594;1251;99404;-74
2024/04/12 11:59:27;;;;;;;10.50;3.80;;;;;;;22.17;37.72;101416.98;108243;1251;107101;-72
2024/04/12 12:02:08;;;;;;;13.60;4.30;;;;;;;22.21;37.85;101416.10;108562;1253;97361;-72
2024/04/12 12:04:45;;;;;;;10.00;3.60;;;;;;;22.16;37.79;101415.38;108575;1251;96621;-72
2024/04/12 12:07:16;;;;;;;14.00;4.30;;;;;;;22.18;37.92;101414.67;108543;1251;111746;-71
2024/04/12 12:09:50;;;;;;;9.50;4.10;;;;;;;22.20;37.72;101411.47;108716;1250;97603;-72
2024/04/12 12:12:31;;;;;;;12.50;4.00;;;;;;;22.18;37.87;101409.15;108640;1251;106370;-72
2024/04/12 12:15:06;;;;;;;12.50;4.70;;;;;;;22.15;37.81;101411.10;108663;1254;96368;-72
2024/04/12 12:17:49;;;;;;;11.10;4.00;;;;;;;22.16;37.91;101405.58;108577;1251;98113;-73
2024/04/12 12:20:21;;;;;;;14.60;4.40;;;;;;;22.22;37.69;101399.00;108679;1251;111866;-72
2024/04/12 12:23:13;;;;;;;10.10;3.90;;;;;;;22.20;37.74;101393.64;108726;1249;97507;-72
2024/04/12 12:25:51;;;;;;;14.50;4.60;;;;;;;22.12;37.76;101396.31;108571;1250;106167;-72
2024/04/12 12:28:36;;;;;;;10.40;4.20;;;;;;;22.05;37.78;101391.14;108475;1251;97305;-73
2024/04/12 12:31:11;;;;;;;10.90;4.00;;;;;;;22.04;37.82;101383.83;108541;1251;96327;-72
2024/04/12 12:33:45;;;;;;;8.90;4.10;;;;;;;22.02;37.68;101387.02;108369;1254;111436;-72
2024/04/12 12:36:36;;;;;;;9.00;4.00;;;;;;;21.95;37.80;101385.94;108576;1251;97693;-72
2024/04/12 12:39:12;;;;;;;9.60;3.90;;;;;;;21.84;37.64;101383.59;108479;1251;106244;-73
2024/04/12 12:41:50;;;;;;;11.90;4.40;;;;;;;21.74;37.81;101373.75;108547;1250;97020;-72
2024/04/12 12:44:30;;;;;;;10.20;4.00;;;;;;;21.71;37.93;101369.48;108653;1249;96292;-73
2024/04/12 12:47:02;;;;;;;12.20;3.90;;;;;;;21.78;37.95;101367.54;108572;1252;111876;-74
2024/04/12 12:49:40;;;;;;;13.50;4.40;;;;;;;21.82;38.03;101367.55;108615;1250;98219;-72
2024/04/12 12:52:11;;;;;;;14.30;3.90;;;;;;;21.81;38.04;101361.14;108589;1251;106401;-74
2024/04/12 12:54:46;;;;;;;8.30;3.90;;;;;;;21.79;38.00;101364.52;108607;1251;97859;-74
2024/04/12 12:57:38;;;;;;;10.40;3.90;;;;;;;21.80;37.86;101359.71;108600;1251;97703;-73
2024/04/12 13:00:18;;;;;;;10.60;4.20;;;;;;;21.77;37.82;101357.03;108538;1250;111458;-72
2024/04/12 13:02:52;;;;;;;11.90;4.20;;;;;;;21.77;37.91;101346.88;108563;1251;97417;-72
2024/04/12 13:05:37;;;;;;;8.50;3.50;;;;;;;21.75;37.66;101343.67;108499;1251;106337;-72
2024/04/12 13:08:18;;;;;;;10.50;3.80;;;;;;;21.70;37.65;101341.86;108521;1251;97494;-72
2024/04/12 13:10:59;;;;;;;11.50;3.90;;;;;;;21.66;37.84;101337.76;108525;1251;96786;-72
2024/04/12 13:13:33;;;;;;;14.40;4.20;;;;;;;21.65;37.88;101334.20;108584;1250;111979;-72
2024/04/12 13:16:11;;;;;;;11.60;4.20;;;;;;;21.67;38.03;101327.80;108600;1253;96357;-72
2024/04/12 13:18:56;;;;;;;14.10;4.20;;;;;;;21.71;38.05;101325.66;108561;1250;106271;-74
2024/04/12 13:21:39;;;;;;;10.70;4.00;;;;;;;21.69;38.07;101322.63;108632;1253;96396;-73
2024/04/12 13:24:37;;;;;;;10.10;4.20;;;;;;;21.70;38.14;101321.57;108587;1249;96868;-74
2024/04/12 13:27:29;;;;;;;11.10;4.20;;;;;;;21.76;38.20;101312.33;108445;1251;112516;-72
2024/04/12 13:30:09;;;;;;;10.20;4.50;;;;;;;21.76;38.22;101312.33;108463;1251;97216;-73
2024/04/12 13:33:02;;;;;;;10.00;4.20;;;;;;;21.80;38.21;101306.65;108514;1253;106995;-72
2024/04/12 13:35:40;;;;;;;15.00;4.50;;;;;;;21.84;38.33;101303.63;108343;1250;96550;-72
2024/04/12 13:38:20;;;;;;;12.00;3.90;;;;;;;21.85;38.26;101304.34;108621;1249;97247;-71
2024/04/12 13:41:14;;;;;;;8.90;4.20;;;;;;;21.85;38.23;101303.27;108654;1251;111184;-73
2024/04/12 13:43:49;;;;;;;13.70;4.10;;;;;;;21.80;38.01;101295.77;108707;1251;96785;-74
2024/04/12 13:52:12;;;;;;;9.20;4.00;;;;;;;21.77;37.94;101288.64;108500;1251;98305;-73